Thursday, September 20, 2018, 8:47 AM EDT
Back to Local

KLEB, Lebanon Municipal Airport

Location: Lebanon, NH, United States Lat: 43.633
Local Time: 8:47 AM EDT (12:47 GMT) Lon: -72.3
Time Zone: US/Eastern Elev: 597 ft

Show me the last for .
Show Coded

Time T Td Feel RH Dir Speed Gust Alt SLP Vis Weather Sky Remarks
2018-09-20 08:07 56 50 - 80 360° 5 - 30.24 - 10 OVC015 None
2018-09-20 07:53 57 51 - 80 350° 3 - 30.23 30.21 10 OVC014 6-hr Min Temp (8am): 53.1°F
6-hr Max Temp (8am): 57.0°F
2018-09-20 06:53 56 50 - 80 360° 3 - 30.20 30.19 10 OVC014 None
2018-09-20 05:53 56 50 - 80 - Calm - 30.17 30.16 10 OVC015 None
2018-09-20 05:10 56 50 - 80 360° 5 - 30.17 - 10 OVC014 None
2018-09-20 04:53 56 50 - 80 - Calm - 30.16 30.15 10 OVC015 None
2018-09-20 03:53 55 49 - 79 - Calm - 30.16 30.15 10 OVC018 None
2018-09-20 02:53 54 49 - 83 20° 3 - 30.16 30.15 10 OVC020 None
2018-09-20 02:04 54 50 - 86 - Calm - 30.15 - 10 BKN024 BKN035 OVC042 None
2018-09-20 01:53 53 49 - 85 - Calm - 30.15 30.13 10 FEW022 BKN035 OVC043 6-hr Min Temp (2am): 51.1°F
6-hr Max Temp (2am): 63.0°F
2018-09-20 00:53 52 48 - 86 - Calm - 30.15 30.14 10 BKN036 24-hr Min Temp (1am): 51.1°F
24-hr Max Temp (1am): 73.0°F
2018-09-19 23:53 52 48 - 86 180° 5 - 30.14 30.12 10 CLR None
2018-09-19 22:53 54 49 - 83 - Calm - 30.13 30.12 10 CLR None
2018-09-19 21:53 57 50 - 77 140° 3 - 30.11 30.10 10 OVC036 None
2018-09-19 20:53 61 51 - 69 20° 7 - 30.10 30.08 10 OVC036 None
2018-09-19 19:53 63 50 - 62 30° 8 - 30.08 30.06 10 OVC037 6-hr Min Temp (8pm): 62.1°F
6-hr Max Temp (8pm): 72.0°F
2018-09-19 18:53 63 51 - 65 40° 9 - 30.05 30.03 10 OVC039 None
2018-09-19 17:53 66 53 - 63 30° 7 - 30.03 30.01 10 OVC046 None
2018-09-19 16:53 68 53 - 58 30° 9 - 30.02 29.99 10 OVC040 None
2018-09-19 15:53 69 53 - 56 50° 12 - 29.97 29.95 10 OVC038 None
2018-09-19 14:53 70 54 - 56 30° 12 - 29.97 29.94 10 OVC040 None
2018-09-19 13:53 71 55 76 56 360° 7 - 29.97 29.95 10 OVC037 6-hr Min Temp (2pm): 64.0°F
6-hr Max Temp (2pm): 73.0°F
2018-09-19 12:53 72 56 76 57 10° 6 - 29.97 29.94 10 OVC039 None
2018-09-19 11:53 69 56 - 62 - Calm - 29.97 29.95 10 FEW021 BKN032 OVC041 None
2018-09-19 11:00 68 57 - 67 - Calm - 29.97 - 10 SCT018 OVC036 None
2018-09-19 10:53 69 58 - 67 330° 5 - 29.97 29.94 10 SCT010 BKN014 OVC042 None
2018-09-19 10:04 66 58 - 75 - Calm - 29.96 - 10 SCT010 BKN014 OVC042 None
2018-09-19 09:53 67 58 - 72 - Calm - 29.96 29.93 10 BKN010 BKN014 OVC042 None
2018-09-19 09:21 66 58 - 75 40° 3 - 29.96 - 10 BKN014 OVC042 None
2018-09-19 09:11 65 58 - 78 20° 6 - 29.96 - 10 BKN016 OVC042 None
2018-09-19 08:59 65 58 - 78 30° 5 - 29.95 - 10 SCT016 OVC042 None
2018-09-19 08:53 65 59 - 81 360° 6 - 29.95 29.92 10 BKN006 OVC012 None

Support USWX by starting your Amazon purchase here.